Time;durP1;ratioP1;P1;durP2;ratioP2;P2;SDS_P1;SDS_P2;PMS_P1;PMS_P2;Temp;Humidity;BMP_temperature;BMP_pressure;BME280_temperature;BME280_humidity;BME280_pressure;Samples;Min_cycle;Max_cycle;Signal;HPM_P1;HPM_P2
2024/01/20 00:02:03;;;;;;;19.85;8.52;;;0.10;99.90;;;;;;4999700;28;20014;-79
2024/01/20 00:04:29;;;;;;;26.20;9.93;;;0.10;99.90;;;;;;4999612;28;20173;-78
2024/01/20 00:06:55;;;;;;;24.25;8.80;;;0.00;99.90;;;;;;5000463;28;20033;-78
2024/01/20 00:09:20;;;;;;;27.02;9.07;;;0.00;99.90;;;;;;5000668;28;20493;-78
2024/01/20 00:11:46;;;;;;;25.23;9.48;;;0.00;99.90;;;;;;5001118;28;20102;-78
2024/01/20 00:14:11;;;;;;;22.30;8.88;;;0.20;99.90;;;;;;4999930;28;20565;-79
2024/01/20 00:16:37;;;;;;;20.45;7.72;;;0.00;99.90;;;;;;4999968;28;20061;-79
2024/01/20 00:19:03;;;;;;;24.10;7.97;;;0.00;99.90;;;;;;5000352;28;20054;-78
2024/01/20 00:21:29;;;;;;;22.83;9.48;;;0.60;99.90;;;;;;5001496;28;20015;-79
2024/01/20 00:23:55;;;;;;;23.77;9.23;;;0.00;99.90;;;;;;4999830;28;20055;-79
2024/01/20 00:26:21;;;;;;;21.92;9.50;;;0.00;99.90;;;;;;5000330;28;20073;-79
2024/01/20 00:28:47;;;;;;;22.40;7.82;;;;;;;;;;4998937;28;20022;-78
2024/01/20 00:31:13;;;;;;;28.60;10.38;;;-0.10;99.90;;;;;;4999488;28;20501;-79
2024/01/20 00:33:39;;;;;;;23.50;9.02;;;-0.10;99.90;;;;;;4999242;28;20041;-79
2024/01/20 00:36:04;;;;;;;22.27;9.65;;;-0.10;99.90;;;;;;5000517;28;20038;-79
2024/01/20 00:38:32;;;;;;;24.25;8.93;;;-0.20;99.90;;;;;;5000466;28;20045;-79
2024/01/20 00:40:58;;;;;;;20.20;8.48;;;1.10;99.90;;;;;;4999893;28;20109;-79
2024/01/20 00:43:24;;;;;;;26.77;9.20;;;-0.20;99.90;;;;;;5000184;28;20019;-80
2024/01/20 00:45:50;;;;;;;22.98;9.57;;;-0.30;99.90;;;;;;5000329;28;20482;-78
2024/01/20 00:48:16;;;;;;;22.90;8.85;;;-0.30;99.90;;;;;;4998992;28;20057;-78
2024/01/20 00:50:41;;;;;;;24.33;8.68;;;-0.30;99.90;;;;;;4999609;28;20054;-79
2024/01/20 00:53:07;;;;;;;24.08;8.05;;;-0.30;99.90;;;;;;5000201;28;20022;-79
2024/01/20 00:55:33;;;;;;;24.13;8.63;;;-0.40;99.90;;;;;;4999955;28;20030;-78
2024/01/20 00:57:58;;;;;;;30.65;9.35;;;-0.30;99.90;;;;;;4997934;28;20039;-78
2024/01/20 01:00:24;;;;;;;24.77;9.15;;;-0.40;99.90;;;;;;4998464;28;20015;-78
2024/01/20 01:02:49;;;;;;;26.85;9.18;;;-0.50;99.90;;;;;;4998244;28;20024;-79
2024/01/20 01:05:15;;;;;;;24.35;8.75;;;-0.50;99.90;;;;;;4997842;28;20113;-78
2024/01/20 01:07:41;;;;;;;27.63;9.07;;;-0.50;99.90;;;;;;4998980;28;20038;-78
2024/01/20 01:10:07;;;;;;;28.38;9.02;;;-0.60;99.90;;;;;;4999941;28;20030;-77
2024/01/20 01:12:34;;;;;;;24.80;8.75;;;-0.60;99.90;;;;;;4997315;28;20060;-78
2024/01/20 01:14:59;;;;;;;31.73;10.05;;;-0.60;99.90;;;;;;4999478;28;20027;-79
2024/01/20 01:17:25;;;;;;;28.33;9.43;;;-0.70;99.90;;;;;;4999767;28;20178;-77
2024/01/20 01:19:50;;;;;;;27.48;10.60;;;-0.70;99.90;;;;;;5001891;28;20022;-79
2024/01/20 01:22:16;;;;;;;28.63;9.40;;;0.80;99.90;;;;;;5000110;28;20080;-78
2024/01/20 01:24:42;;;;;;;28.50;8.07;;;-0.70;99.90;;;;;;5001018;28;20154;-78
2024/01/20 01:27:07;;;;;;;30.92;11.07;;;-0.80;99.90;;;;;;4998620;28;20108;-78
2024/01/20 01:29:33;;;;;;;29.42;9.25;;;-0.70;99.90;;;;;;4998495;28;20101;-79
2024/01/20 01:31:59;;;;;;;36.45;9.82;;;-0.70;99.90;;;;;;4999959;28;20502;-79
2024/01/20 01:34:24;;;;;;;30.75;10.65;;;-0.70;99.90;;;;;;4998367;28;20037;-77
2024/01/20 01:36:50;;;;;;;35.97;11.63;;;-0.70;99.90;;;;;;5000545;28;20078;-76
2024/01/20 01:39:17;;;;;;;34.83;11.30;;;-0.70;99.90;;;;;;4999824;28;20022;-78
2024/01/20 01:41:43;;;;;;;39.75;11.30;;;-0.70;99.90;;;;;;4999688;28;20022;-77
2024/01/20 01:44:10;;;;;;;33.45;11.32;;;-0.80;99.90;;;;;;4998792;28;20027;-77
2024/01/20 01:46:36;;;;;;;38.50;10.90;;;-0.80;99.90;;;;;;4998201;28;20018;-77
2024/01/20 01:49:05;;;;;;;37.58;11.35;;;-0.90;99.90;;;;;;4999869;28;20113;-77
2024/01/20 01:51:31;;;;;;;30.73;9.95;;;-0.80;99.90;;;;;;4999554;28;20114;-77
2024/01/20 01:54:01;;;;;;;35.30;11.63;;;-0.90;99.90;;;;;;4999094;28;20482;-77
2024/01/20 01:56:29;;;;;;;39.22;12.10;;;-0.80;99.90;;;;;;4998971;28;20069;-76
2024/01/20 01:58:56;;;;;;;34.08;10.55;;;-0.80;99.90;;;;;;4998844;28;20093;-78
2024/01/20 02:01:21;;;;;;;35.13;9.88;;;-0.90;99.90;;;;;;4998084;28;20061;-78
2024/01/20 02:03:47;;;;;;;33.80;10.13;;;-0.80;99.90;;;;;;4999320;28;20031;-78
2024/01/20 02:06:13;;;;;;;36.00;11.13;;;-0.90;99.90;;;;;;4999981;28;20073;-76
2024/01/20 02:08:40;;;;;;;39.42;11.68;;;-0.90;99.90;;;;;;5000306;28;20056;-75
2024/01/20 02:11:07;;;;;;;36.70;12.15;;;-0.90;99.90;;;;;;5000245;28;20022;-76
2024/01/20 02:13:34;;;;;;;35.47;10.88;;;-0.90;99.90;;;;;;4998610;28;20030;-76
2024/01/20 02:16:01;;;;;;;35.88;11.48;;;-1.00;99.90;;;;;;4999288;28;20030;-75
2024/01/20 02:18:27;;;;;;;41.88;12.80;;;-0.10;99.90;;;;;;4999146;28;20493;-75
2024/01/20 02:20:53;;;;;;;35.70;11.18;;;-1.00;99.90;;;;;;4998825;28;20023;-75
2024/01/20 02:23:18;;;;;;;34.83;10.80;;;-1.00;99.90;;;;;;4998521;28;20045;-75
2024/01/20 02:25:45;;;;;;;36.92;12.48;;;-1.00;99.90;;;;;;4999572;28;20053;-75
2024/01/20 02:28:11;;;;;;;35.08;11.05;;;-1.00;99.90;;;;;;4997700;28;20053;-75
2024/01/20 02:30:36;;;;;;;35.38;10.80;;;-1.00;99.90;;;;;;4997219;28;20121;-76
2024/01/20 02:33:02;;;;;;;40.05;11.90;;;-1.00;99.90;;;;;;4998009;28;20022;-76
2024/01/20 02:35:28;;;;;;;35.60;11.48;;;-1.10;99.90;;;;;;4997840;28;20053;-75
2024/01/20 02:37:53;;;;;;;33.22;9.85;;;-1.10;99.90;;;;;;4996985;28;20018;-75
2024/01/20 02:40:19;;;;;;;34.08;10.60;;;-1.00;99.90;;;;;;4998560;28;20030;-75
2024/01/20 02:42:45;;;;;;;29.40;9.90;;;-1.00;99.90;;;;;;4997440;28;20026;-76
2024/01/20 02:45:10;;;;;;;36.97;11.75;;;-0.90;99.90;;;;;;4997618;28;20022;-76
2024/01/20 02:47:36;;;;;;;37.22;10.95;;;-1.00;99.90;;;;;;4998265;28;20018;-75
2024/01/20 02:50:02;;;;;;;39.72;12.18;;;-0.90;99.90;;;;;;4997154;28;20033;-75
2024/01/20 02:52:27;;;;;;;31.75;10.55;;;-1.00;99.90;;;;;;4998647;28;20029;-75
2024/01/20 02:54:53;;;;;;;40.17;11.75;;;-1.00;99.90;;;;;;4998297;28;20048;-76
2024/01/20 02:57:19;;;;;;;33.50;11.48;;;-1.10;99.90;;;;;;4996277;28;20034;-75
2024/01/20 02:59:45;;;;;;;34.40;11.00;;;-1.10;99.90;;;;;;4997440;28;20101;-74
2024/01/20 03:02:10;;;;;;;39.22;11.05;;;-1.10;99.90;;;;;;4997002;28;20053;-75
2024/01/20 03:04:36;;;;;;;36.17;11.00;;;-1.00;99.90;;;;;;4998624;28;20046;-75
2024/01/20 03:07:02;;;;;;;34.50;10.60;;;-1.00;99.90;;;;;;4996002;28;20418;-76
2024/01/20 03:09:28;;;;;;;37.30;11.10;;;-1.10;99.90;;;;;;4996373;28;20022;-75
2024/01/20 03:11:53;;;;;;;34.42;11.88;;;-1.10;99.90;;;;;;4996342;28;20045;-75
2024/01/20 03:14:19;;;;;;;38.50;11.55;;;-1.00;99.90;;;;;;4997380;28;20038;-75
2024/01/20 03:16:45;;;;;;;39.97;12.32;;;-1.10;99.90;;;;;;4997743;28;20022;-74
2024/01/20 03:19:10;;;;;;;34.03;10.50;;;-1.10;99.90;;;;;;4996536;28;20015;-74
2024/01/20 03:21:36;;;;;;;36.20;11.35;;;-1.10;99.90;;;;;;4997166;28;20439;-73
2024/01/20 03:24:02;;;;;;;35.40;10.68;;;-1.10;99.90;;;;;;4997017;28;20018;-75
2024/01/20 03:26:27;;;;;;;35.08;11.90;;;-1.20;99.90;;;;;;4998395;28;20113;-75
2024/01/20 03:28:53;;;;;;;37.28;11.40;;;-1.20;99.90;;;;;;4997313;28;20026;-75
2024/01/20 03:31:19;;;;;;;37.78;10.60;;;-1.20;99.90;;;;;;4996954;28;20034;-76
2024/01/20 03:33:45;;;;;;;31.75;10.50;;;-1.30;99.90;;;;;;4997186;28;20486;-74
2024/01/20 03:36:11;;;;;;;35.80;11.60;;;-1.30;99.90;;;;;;4997615;28;20056;-74
2024/01/20 03:38:37;;;;;;;34.15;11.18;;;-0.10;99.90;;;;;;4996693;28;20478;-74
2024/01/20 03:41:02;;;;;;;32.75;10.32;;;-1.30;99.90;;;;;;4997798;28;20014;-74
2024/01/20 03:43:28;;;;;;;37.60;11.35;;;-1.30;99.90;;;;;;4998157;28;20056;-74
2024/01/20 03:45:55;;;;;;;33.47;10.82;;;-1.30;99.90;;;;;;4996591;28;20019;-74
2024/01/20 03:48:21;;;;;;;31.08;7.85;;;-1.30;99.90;;;;;;4997226;28;20022;-74
2024/01/20 03:50:47;;;;;;;37.03;9.80;;;-1.30;99.90;;;;;;5000382;28;20121;-74
2024/01/20 03:53:13;;;;;;;24.00;8.85;;;-1.20;99.90;;;;;;5000092;28;20553;-74
2024/01/20 03:55:38;;;;;;;27.67;10.07;;;-1.20;99.90;;;;;;5000489;28;20085;-74
2024/01/20 03:58:04;;;;;;;34.45;11.10;;;-1.30;99.90;;;;;;5000395;28;20026;-74
2024/01/20 04:00:30;;;;;;;31.95;9.38;;;-1.30;99.90;;;;;;4999292;28;20031;-74
2024/01/20 04:02:56;;;;;;;36.33;10.13;;;-1.30;99.90;;;;;;4999670;28;20027;-74
2024/01/20 04:05:22;;;;;;;27.92;9.18;;;-1.30;99.90;;;;;;5000032;28;20040;-74
2024/01/20 04:07:48;;;;;;;36.45;10.45;;;-1.30;99.90;;;;;;4998837;28;20450;-75
2024/01/20 04:10:14;;;;;;;31.50;9.82;;;-1.30;99.90;;;;;;5000183;28;20029;-75
2024/01/20 04:12:40;;;;;;;31.27;9.32;;;-1.30;99.90;;;;;;4999443;28;20069;-75
2024/01/20 04:15:06;;;;;;;25.05;8.38;;;-1.20;99.90;;;;;;4999868;28;20417;-76
2024/01/20 04:17:32;;;;;;;30.25;9.18;;;-1.20;99.90;;;;;;5000169;28;20034;-75
2024/01/20 04:19:58;;;;;;;36.70;8.25;;;-1.20;99.90;;;;;;4999689;28;20484;-75
2024/01/20 04:22:23;;;;;;;23.65;8.05;;;-1.20;99.90;;;;;;5000577;28;20030;-75
2024/01/20 04:24:49;;;;;;;30.95;9.40;;;-1.20;99.90;;;;;;4999098;28;20025;-76
2024/01/20 04:27:15;;;;;;;28.30;9.60;;;-1.20;99.90;;;;;;4998802;28;20022;-76
2024/01/20 04:29:40;;;;;;;25.20;8.13;;;-1.20;99.90;;;;;;5000434;28;20037;-76
2024/01/20 04:32:06;;;;;;;37.45;10.05;;;-1.20;99.90;;;;;;4999027;28;20041;-76
2024/01/20 04:34:32;;;;;;;33.97;10.55;;;-1.20;99.90;;;;;;5000747;28;20019;-76
2024/01/20 04:36:57;;;;;;;26.60;8.90;;;-1.20;99.90;;;;;;5000493;28;20022;-76
2024/01/20 04:39:23;;;;;;;22.48;8.63;;;-1.20;99.90;;;;;;4999225;28;20050;-75
2024/01/20 04:41:49;;;;;;;30.63;9.10;;;-1.20;99.90;;;;;;4999768;28;20080;-76
2024/01/20 04:44:14;;;;;;;29.45;9.23;;;-1.20;99.90;;;;;;5000637;28;20395;-77
2024/01/20 04:46:40;;;;;;;29.85;9.00;;;-1.10;99.90;;;;;;4999754;28;20099;-77
2024/01/20 04:49:06;;;;;;;31.33;8.90;;;-1.10;99.90;;;;;;5000371;28;20398;-78
2024/01/20 04:51:32;;;;;;;29.10;8.50;;;-1.10;99.90;;;;;;4999600;28;20117;-78
2024/01/20 04:53:58;;;;;;;24.30;8.15;;;-1.10;99.90;;;;;;4999935;28;20065;-75
2024/01/20 04:56:23;;;;;;;28.38;9.25;;;-1.10;99.90;;;;;;4999536;28;20037;-76
2024/01/20 04:58:51;;;;;;;29.45;9.43;;;-1.10;99.90;;;;;;4998765;28;20441;-77
2024/01/20 05:01:17;;;;;;;26.77;8.90;;;-1.10;99.90;;;;;;4999289;28;20030;-77
2024/01/20 05:03:42;;;;;;;31.90;8.85;;;-1.10;99.90;;;;;;4998907;28;20030;-77
2024/01/20 05:06:08;;;;;;;29.40;9.48;;;-1.10;99.90;;;;;;4998668;28;20026;-77
2024/01/20 05:08:34;;;;;;;33.38;8.93;;;-1.10;99.90;;;;;;4998376;28;20455;-77
2024/01/20 05:11:00;;;;;;;29.60;9.65;;;;;;;;;;4999978;28;20374;-76
2024/01/20 05:13:26;;;;;;;31.58;8.65;;;-1.10;99.90;;;;;;4998144;28;20037;-75
2024/01/20 05:15:53;;;;;;;29.27;8.40;;;-1.20;99.90;;;;;;4999205;28;20073;-75
2024/01/20 05:18:19;;;;;;;30.70;8.57;;;-1.20;99.90;;;;;;4998576;28;20069;-75
2024/01/20 05:20:45;;;;;;;34.50;9.77;;;-1.20;99.90;;;;;;4999459;28;20027;-75
2024/01/20 05:23:10;;;;;;;29.52;9.15;;;-1.20;99.90;;;;;;4998396;28;20069;-76
2024/01/20 05:30:55;;;;;;;30.30;9.38;;;;;;;;;;5281530;23;20442;-75
2024/01/20 05:33:21;;;;;;;29.13;9.20;;;;;;;;;;4978763;28;20054;-76
2024/01/20 05:35:47;;;;;;;36.90;10.38;;;;;;;;;;4986270;28;20394;-75
2024/01/20 05:38:14;;;;;;;29.63;9.30;;;;;;;;;;4998444;28;20516;-75
2024/01/20 05:40:40;;;;;;;30.45;9.32;;;;;;;;;;4996939;28;20121;-75
2024/01/20 05:43:06;;;;;;;33.72;9.85;;;;;;;;;;4999326;28;20034;-74
2024/01/20 05:45:32;;;;;;;37.97;11.68;;;;;;;;;;4999434;28;20383;-75
2024/01/20 05:47:58;;;;;;;30.92;7.85;;;;;;;;;;4998255;28;20045;-74
2024/01/20 05:50:25;;;;;;;33.75;9.93;;;;;;;;;;4999333;28;20085;-76
2024/01/20 05:52:55;;;;;;;36.88;10.23;;;;;;;;;;4998595;28;20056;-77
2024/01/20 05:55:21;;;;;;;24.75;8.55;;;;;;;;;;4996901;28;20026;-76
2024/01/20 05:57:50;;;;;;;37.35;10.73;;;;;;;;;;4996625;28;20375;-77
2024/01/20 06:00:19;;;;;;;37.33;9.82;;;;;;;;;;4996987;28;20030;-77
2024/01/20 06:02:45;;;;;;;31.40;9.40;;;;;;;;;;4996198;28;20027;-77
2024/01/20 06:05:11;;;;;;;33.30;9.70;;;;;;;;;;4998234;28;20045;-77
2024/01/20 06:07:37;;;;;;;29.73;9.10;;;;;;;;;;4997250;28;20031;-76
2024/01/20 06:10:03;;;;;;;29.13;9.32;;;;;;;;;;4997853;28;20105;-76
2024/01/20 06:12:30;;;;;;;35.38;8.88;;;;;;;;;;4998751;28;20054;-75
2024/01/20 06:14:59;;;;;;;30.15;8.30;;;;;;;;;;4997687;28;20030;-76
2024/01/20 06:17:25;;;;;;;36.40;9.18;;;;;;;;;;4997830;28;20026;-76
2024/01/20 06:19:51;;;;;;;31.15;9.20;;;;;;;;;;4998887;28;20025;-74
2024/01/20 06:22:17;;;;;;;43.35;10.55;;;;;;;;;;4997762;28;20065;-75
2024/01/20 06:24:46;;;;;;;28.08;9.13;;;;;;;;;;4999497;28;20023;-75
2024/01/20 06:27:12;;;;;;;37.92;10.75;;;;;;;;;;4999583;28;20034;-75
2024/01/20 06:29:41;;;;;;;40.13;10.63;;;;;;;;;;4998766;28;20034;-76
2024/01/20 06:32:08;;;;;;;25.90;8.50;;;;;;;;;;4999118;28;20041;-76
2024/01/20 06:34:34;;;;;;;31.80;9.77;;;;;;;;;;4996651;28;20038;-74
2024/01/20 06:37:00;;;;;;;33.75;10.07;;;;;;;;;;4997744;28;20026;-75
2024/01/20 06:39:26;;;;;;;29.45;8.77;;;;;;;;;;4996239;28;20443;-74
2024/01/20 06:41:52;;;;;;;33.67;9.20;;;;;;;;;;4997921;28;20509;-74
2024/01/20 06:44:21;;;;;;;33.95;9.77;;;;;;;;;;4996669;28;20033;-75
2024/01/20 06:46:48;;;;;;;28.20;9.23;;;;;;;;;;4996215;28;20050;-75
2024/01/20 06:49:14;;;;;;;36.30;11.23;;;;;;;;;;4998180;28;20068;-75
2024/01/20 06:51:43;;;;;;;29.23;9.38;;;;;;;;;;4997936;28;20110;-74
2024/01/20 06:54:09;;;;;;;29.38;8.38;;;;;;;;;;4998883;28;20405;-75
2024/01/20 06:56:37;;;;;;;24.58;8.55;;;;;;;;;;4997960;28;20113;-75
2024/01/20 06:59:03;;;;;;;26.02;7.15;;;;;;;;;;4998821;28;20046;-76
2024/01/20 07:01:30;;;;;;;28.77;8.98;;;;;;;;;;4997271;28;20029;-76
2024/01/20 07:03:57;;;;;;;32.03;9.27;;;;;;;;;;4995846;28;20018;-76
2024/01/20 07:06:26;;;;;;;33.53;9.43;;;;;;;;;;4995860;28;20023;-77
2024/01/20 07:08:54;;;;;;;33.90;9.48;;;;;;;;;;4997504;28;20437;-77
2024/01/20 07:11:20;;;;;;;23.75;6.75;;;;;;;;;;4995869;28;20019;-77
2024/01/20 07:13:47;;;;;;;32.28;9.30;;;;;;;;;;4996629;28;20030;-77
2024/01/20 07:16:16;;;;;;;33.42;8.48;;;;;;;;;;4995791;28;20023;-77
2024/01/20 07:18:42;;;;;;;33.00;9.20;;;;;;;;;;4995916;28;20030;-76
2024/01/20 07:21:08;;;;;;;31.55;9.18;;;;;;;;;;4997306;28;20437;-75
2024/01/20 07:23:34;;;;;;;30.58;8.77;;;;;;;;;;4997720;28;20109;-76
2024/01/20 07:26:03;;;;;;;26.88;7.50;;;;;;;;;;5000513;28;20077;-76
2024/01/20 07:28:29;;;;;;;28.30;9.70;;;;;;;;;;5001670;28;20026;-76
2024/01/20 07:30:55;;;;;;;34.70;8.75;;;;;;;;;;5001441;28;20042;-76
2024/01/20 07:33:21;;;;;;;30.60;8.82;;;;;;;;;;5000689;28;20026;-77
2024/01/20 07:35:48;;;;;;;32.75;8.40;;;;;;;;;;5001561;28;20026;-76
2024/01/20 07:38:14;;;;;;;34.25;9.55;;;;;;;;;;5000362;28;20095;-76
2024/01/20 07:40:40;;;;;;;29.88;8.30;;;;;;;;;;5001863;28;20474;-76
2024/01/20 07:43:07;;;;;;;31.48;10.43;;;;;;;;;;5000273;28;20026;-77
2024/01/20 07:45:33;;;;;;;34.45;9.70;;;;;;;;;;5002067;28;20505;-74
2024/01/20 07:47:59;;;;;;;30.83;9.65;;;;;;;;;;5001449;28;20426;-75
2024/01/20 07:50:26;;;;;;;29.25;9.10;;;;;;;;;;5002049;28;20138;-76
2024/01/20 07:52:52;;;;;;;36.13;10.80;;;;;;;;;;5001655;28;20058;-77
2024/01/20 07:55:18;;;;;;;35.30;9.02;;;;;;;;;;5001203;28;20033;-76
2024/01/20 07:57:44;;;;;;;33.60;10.23;;;;;;;;;;4999731;28;20050;-75
2024/01/20 08:00:11;;;;;;;28.52;9.00;;;;;;;;;;4999842;28;20019;-76
2024/01/20 08:02:40;;;;;;;28.75;9.52;;;;;;;;;;5001092;28;20022;-77
2024/01/20 08:05:06;;;;;;;31.55;9.68;;;;;;;;;;4999516;28;20027;-77
2024/01/20 08:07:33;;;;;;;31.75;9.52;;;;;;;;;;5000278;28;20030;-78
2024/01/20 08:09:59;;;;;;;36.72;9.40;;;-0.90;99.90;;;;;;5000027;28;20045;-76
2024/01/20 08:12:24;;;;;;;30.77;10.02;;;-0.80;99.90;;;;;;4999668;28;20061;-75
2024/01/20 08:14:50;;;;;;;30.88;9.70;;;1.30;99.90;;;;;;5000524;28;20026;-75
2024/01/20 08:17:15;;;;;;;37.42;8.95;;;-0.70;99.90;;;;;;5000033;28;20112;-77
2024/01/20 08:19:41;;;;;;;27.40;9.20;;;-0.70;99.90;;;;;;5000045;28;20101;-78
2024/01/20 08:22:07;;;;;;;31.83;10.27;;;-0.70;99.90;;;;;;5000101;28;20026;-76
2024/01/20 08:24:33;;;;;;;34.60;10.85;;;-0.60;99.90;;;;;;4999549;28;20034;-76
2024/01/20 08:26:59;;;;;;;27.13;7.57;;;-0.60;99.90;;;;;;5000777;28;20514;-76
2024/01/20 08:29:25;;;;;;;35.03;10.88;;;-0.60;99.90;;;;;;5000285;28;20072;-77
2024/01/20 08:31:50;;;;;;;33.42;8.35;;;-0.50;99.90;;;;;;5000811;28;20110;-76
2024/01/20 08:34:16;;;;;;;34.13;9.13;;;-0.40;99.90;;;;;;5000163;28;20066;-75
2024/01/20 08:36:41;;;;;;;32.95;9.43;;;-0.40;99.90;;;;;;4998184;28;20034;-76
2024/01/20 08:39:07;;;;;;;30.73;9.60;;;-0.40;99.90;;;;;;5000511;28;20098;-77
2024/01/20 08:41:33;;;;;;;33.65;10.00;;;-0.40;99.90;;;;;;5001220;28;20027;-76
2024/01/20 08:43:58;;;;;;;34.50;11.05;;;-0.40;99.90;;;;;;4998194;28;20072;-76
2024/01/20 08:46:25;;;;;;;31.23;8.88;;;-0.40;99.90;;;;;;4998736;28;20026;-77
2024/01/20 08:48:51;;;;;;;33.15;10.50;;;-0.40;99.90;;;;;;4999152;28;20029;-77
2024/01/20 08:51:17;;;;;;;30.45;8.93;;;-0.30;99.90;;;;;;5000458;28;20022;-78
2024/01/20 08:53:43;;;;;;;33.13;10.60;;;-0.30;99.90;;;;;;4998800;28;20054;-77
2024/01/20 08:56:09;;;;;;;43.35;11.32;;;-0.30;99.90;;;;;;5000382;28;20022;-77
2024/01/20 08:58:34;;;;;;;37.05;10.95;;;-0.30;99.90;;;;;;5000697;28;20023;-77
2024/01/20 09:01:00;;;;;;;34.33;11.07;;;-0.30;99.90;;;;;;4999117;28;20018;-78
2024/01/20 09:03:26;;;;;;;29.52;8.93;;;-0.30;99.90;;;;;;4999109;28;20025;-78
2024/01/20 09:05:52;;;;;;;35.85;10.35;;;-0.20;99.90;;;;;;5000879;28;20022;-78
2024/01/20 09:08:18;;;;;;;31.70;10.43;;;-0.20;99.90;;;;;;4999294;28;20026;-78
2024/01/20 09:10:44;;;;;;;37.67;11.38;;;-0.10;99.90;;;;;;4998069;28;20049;-74
2024/01/20 09:13:10;;;;;;;37.40;11.35;;;-0.20;99.90;;;;;;4999312;28;20093;-74
2024/01/20 09:15:36;;;;;;;34.13;10.73;;;0.00;99.90;;;;;;4998758;28;20556;-75
2024/01/20 09:18:02;;;;;;;36.90;10.73;;;0.00;99.90;;;;;;4999011;28;20030;-76
2024/01/20 09:20:27;;;;;;;35.80;10.18;;;0.00;99.90;;;;;;4999014;28;20077;-75
2024/01/20 09:22:53;;;;;;;37.97;11.35;;;0.00;99.90;;;;;;5000021;28;20082;-77
2024/01/20 09:25:18;;;;;;;41.53;12.10;;;0.10;99.90;;;;;;4999283;28;20050;-77
2024/01/20 09:27:44;;;;;;;37.60;10.65;;;0.10;99.90;;;;;;4999360;28;20058;-77
2024/01/20 09:30:10;;;;;;;43.38;12.18;;;0.40;99.90;;;;;;4998565;28;20042;-75
2024/01/20 09:32:36;;;;;;;32.05;10.02;;;0.20;99.90;;;;;;4998422;28;20049;-75
2024/01/20 09:35:03;;;;;;;34.05;10.60;;;0.20;99.90;;;;;;4998045;28;20084;-76
2024/01/20 09:37:29;;;;;;;33.95;10.43;;;0.30;99.90;;;;;;4998264;28;20027;-75
2024/01/20 09:39:55;;;;;;;33.75;9.82;;;0.40;99.90;;;;;;4998953;28;20042;-74
2024/01/20 09:42:21;;;;;;;29.83;9.00;;;0.50;99.90;;;;;;4999260;28;20078;-77
2024/01/20 09:44:47;;;;;;;32.92;9.45;;;0.40;99.90;;;;;;4998912;28;20050;-77
2024/01/20 09:47:13;;;;;;;36.13;9.07;;;0.40;99.90;;;;;;4997329;28;20389;-77
2024/01/20 09:49:39;;;;;;;29.40;9.93;;;0.50;99.90;;;;;;4997922;28;20093;-77
2024/01/20 09:52:12;;;;;;;26.73;9.30;;;0.60;99.90;;;;;;5000373;28;20033;-78
2024/01/20 09:55:01;;;;;;;29.73;9.90;;;0.70;99.90;;;;;;4999958;28;20022;-77
2024/01/20 09:57:28;;;;;;;35.25;8.77;;;0.80;99.90;;;;;;4998984;28;20046;-77
2024/01/20 09:59:56;;;;;;;36.72;11.30;;;0.90;99.90;;;;;;4998591;28;20026;-78
2024/01/20 10:02:25;;;;;;;27.77;7.88;;;1.00;99.90;;;;;;4998278;28;20034;-78
2024/01/20 10:04:56;;;;;;;35.72;10.40;;;1.20;99.90;;;;;;4998042;28;20015;-78
2024/01/20 10:07:29;;;;;;;26.08;8.27;;;1.30;99.90;;;;;;4997869;28;20030;-78
2024/01/20 10:09:58;;;;;;;27.17;9.35;;;1.50;99.90;;;;;;4999148;28;20030;-78
2024/01/20 10:12:23;;;;;;;25.85;9.07;;;1.60;99.90;;;;;;4992189;28;20038;-78
2024/01/20 10:14:52;;;;;;;29.95;10.02;;;1.60;99.90;;;;;;4998392;28;20026;-78
2024/01/20 10:17:19;;;;;;;28.73;9.65;;;1.70;99.90;;;;;;4996614;28;20022;-78
2024/01/20 10:19:45;;;;;;;30.08;10.75;;;1.70;99.90;;;;;;4981168;28;20383;-78
2024/01/20 10:22:11;;;;;;;29.52;9.50;;;1.70;99.90;;;;;;4979310;28;20029;-78
2024/01/20 10:24:47;;;;;;;24.85;9.55;;;1.80;99.90;;;;;;4979791;28;20023;-78
2024/01/20 10:27:16;;;;;;;29.75;10.32;;;1.70;99.90;;;;;;4979294;28;20030;-77
2024/01/20 10:29:42;;;;;;;;;;;1.80;99.90;;;;;;4978406;28;20115;-77
2024/01/20 10:32:08;;;;;;;31.45;10.48;;;1.90;99.90;;;;;;4989062;28;19949;-78
2024/01/20 10:34:33;;;;;;;31.42;10.68;;;1.90;99.90;;;;;;4984240;28;20085;-78
2024/01/20 10:37:01;;;;;;;34.88;10.18;;;1.80;99.90;;;;;;4998733;28;20026;-78
2024/01/20 10:39:28;;;;;;;30.60;10.15;;;1.90;99.90;;;;;;4993714;28;20560;-73
2024/01/20 10:41:55;;;;;;;21.92;7.43;;;1.80;99.90;;;;;;4978552;28;20395;-78
2024/01/20 10:44:28;;;;;;;28.15;8.15;;;1.70;99.90;;;;;;4978528;28;20030;-73
2024/01/20 10:46:59;;;;;;;26.15;8.45;;;1.70;99.90;;;;;;4979143;28;20058;-78
2024/01/20 10:49:25;;;;;;;28.90;9.30;;;1.70;99.90;;;;;;4979150;28;20030;-79
2024/01/20 10:51:52;;;;;;;27.40;8.82;;;1.60;99.90;;;;;;4978289;28;20023;-74
2024/01/20 10:54:19;;;;;;;28.88;9.63;;;;;;;;;;4978135;28;20475;-79
2024/01/20 10:56:44;;;;;;;28.98;9.38;;;1.60;99.90;;;;;;4978351;28;20092;-78
2024/01/20 10:59:12;;;;;;;28.10;9.48;;;1.60;99.90;;;;;;4980734;28;20075;-78
2024/01/20 11:01:40;;;;;;;24.02;9.07;;;1.60;99.90;;;;;;4983398;28;20026;-80
2024/01/20 11:04:07;;;;;;;35.05;9.82;;;1.70;99.90;;;;;;4982475;28;20050;-77
2024/01/20 11:06:35;;;;;;;25.42;9.35;;;1.80;99.90;;;;;;4981394;28;20019;-76
2024/01/20 11:09:02;;;;;;;25.75;9.35;;;1.80;99.90;;;;;;4983074;28;20479;-76
2024/01/20 11:11:29;;;;;;;22.20;8.10;;;1.90;99.90;;;;;;4983249;28;20015;-76
2024/01/20 11:14:01;;;;;;;32.60;10.13;;;2.00;99.90;;;;;;4982463;28;20390;-75
2024/01/20 11:16:33;;;;;;;24.52;8.15;;;2.20;99.90;;;;;;4981443;28;20500;-75
2024/01/20 11:19:09;;;;;;;23.88;8.38;;;2.20;99.90;;;;;;4982791;28;20098;-75
2024/01/20 11:21:34;;;;;;;27.65;9.00;;;2.30;99.90;;;;;;4983383;28;20022;-76
2024/01/20 11:24:01;;;;;;;20.02;6.55;;;2.40;99.90;;;;;;4983083;28;20023;-77
2024/01/20 11:26:36;;;;;;;21.73;8.20;;;2.50;99.90;;;;;;4981386;28;20043;-74
2024/01/20 11:29:05;;;;;;;25.15;8.43;;;2.60;99.90;;;;;;4981663;28;20414;-75
2024/01/20 11:31:31;;;;;;;24.77;8.23;;;2.50;99.90;;;;;;4980779;28;20023;-74
2024/01/20 11:34:02;;;;;;;26.50;7.60;;;2.40;99.90;;;;;;4982042;28;20078;-75
2024/01/20 11:36:29;;;;;;;24.02;8.48;;;2.40;99.90;;;;;;4980224;28;20485;-75
2024/01/20 11:38:59;;;;;;;25.02;7.38;;;2.30;99.90;;;;;;4980652;28;20030;-75
2024/01/20 11:41:25;;;;;;;20.77;7.78;;;2.30;99.90;;;;;;4982795;28;20061;-75
2024/01/20 11:43:54;;;;;;;22.75;7.85;;;2.30;99.90;;;;;;4980779;28;20018;-75
2024/01/20 11:46:21;;;;;;;25.45;8.13;;;2.40;99.90;;;;;;4981034;28;20049;-75
2024/01/20 11:48:47;;;;;;;21.55;7.55;;;2.30;99.90;;;;;;4981379;28;20097;-75
2024/01/20 11:51:13;;;;;;;19.25;6.57;;;2.30;99.90;;;;;;4982417;28;20039;-75
2024/01/20 11:53:38;;;;;;;25.58;8.02;;;2.40;99.90;;;;;;4982471;28;20019;-74
2024/01/20 11:56:05;;;;;;;21.00;7.05;;;2.40;99.90;;;;;;4982221;28;20421;-75
2024/01/20 11:58:31;;;;;;;22.08;7.32;;;2.50;99.90;;;;;;4981283;28;20027;-75
2024/01/20 12:00:58;;;;;;;19.27;6.18;;;2.50;99.90;;;;;;4982128;28;20031;-75
2024/01/20 12:03:24;;;;;;;21.25;7.13;;;2.50;99.90;;;;;;4981566;28;20030;-75
2024/01/20 12:05:51;;;;;;;21.77;7.63;;;2.50;99.90;;;;;;4981880;28;20027;-75
2024/01/20 12:08:17;;;;;;;22.48;7.07;;;2.20;99.90;;;;;;4982407;28;20038;-75
2024/01/20 12:10:46;;;;;;;23.50;7.72;;;2.20;99.90;;;;;;4979953;28;20514;-75
2024/01/20 12:13:13;;;;;;;21.45;7.15;;;2.40;99.90;;;;;;4980371;28;20023;-75
2024/01/20 12:15:39;;;;;;;20.27;7.35;;;2.40;99.90;;;;;;4979864;28;20035;-75
2024/01/20 12:18:05;;;;;;;19.20;6.97;;;2.50;99.90;;;;;;4982534;28;20054;-75
2024/01/20 12:20:31;;;;;;;18.10;6.07;;;2.80;99.90;;;;;;4981223;28;20038;-75
2024/01/20 12:23:00;;;;;;;19.23;6.75;;;2.80;99.90;;;;;;4981486;28;20011;-76
2024/01/20 12:25:27;;;;;;;19.55;6.90;;;3.10;99.90;;;;;;4980582;28;20030;-74
2024/01/20 12:27:52;;;;;;;16.48;6.05;;;3.10;99.90;;;;;;4980621;28;20035;-76
2024/01/20 12:30:18;;;;;;;16.05;5.65;;;3.30;99.90;;;;;;4981985;28;20093;-75
2024/01/20 12:32:44;;;;;;;19.30;5.88;;;3.20;99.90;;;;;;4981635;28;20046;-75
2024/01/20 12:35:10;;;;;;;17.15;6.32;;;3.40;99.90;;;;;;4981903;28;20046;-76
2024/01/20 12:37:36;;;;;;;16.60;5.82;;;3.30;99.90;;;;;;4982072;28;20386;-75
2024/01/20 12:40:05;;;;;;;22.58;7.13;;;3.30;99.90;;;;;;4980214;28;20026;-75
2024/01/20 12:42:31;;;;;;;16.40;6.18;;;3.10;99.90;;;;;;4979805;28;20067;-77
2024/01/20 12:44:57;;;;;;;16.70;5.93;;;3.10;99.90;;;;;;4980146;28;20394;-80
2024/01/20 12:47:23;;;;;;;17.80;6.35;;;3.00;99.90;;;;;;4980200;28;20031;-79
2024/01/20 12:49:48;;;;;;;19.90;7.32;;;2.90;99.90;;;;;;4979109;28;20030;-78
2024/01/20 12:52:14;;;;;;;13.50;5.22;;;3.00;99.90;;;;;;4980555;28;20054;-77
2024/01/20 12:54:41;;;;;;;14.38;5.03;;;2.80;99.90;;;;;;4979572;28;20066;-78
2024/01/20 12:57:06;;;;;;;12.85;5.35;;;2.80;99.90;;;;;;4980580;28;20099;-78
2024/01/20 12:59:32;;;;;;;15.75;5.55;;;2.90;99.90;;;;;;4978503;28;20058;-77